createdAt,value
2022-10-19T00:00:49.461Z,22.75
2022-10-19T00:03:20.707Z,22.76
2022-10-19T00:05:50.300Z,22.72
2022-10-19T00:08:17.361Z,22.67
2022-10-19T00:10:44.452Z,22.58
2022-10-19T00:13:11.741Z,22.57
2022-10-19T00:15:40.242Z,22.58
2022-10-19T00:18:09.320Z,22.64
2022-10-19T00:20:37.099Z,22.67
2022-10-19T00:23:04.221Z,22.68
2022-10-19T00:25:31.299Z,22.70
2022-10-19T00:27:58.341Z,22.63
2022-10-19T00:30:25.561Z,22.66
2022-10-19T00:32:52.705Z,22.67
2022-10-19T00:35:21.180Z,22.67
2022-10-19T00:37:48.234Z,22.68
2022-10-19T00:40:15.287Z,22.71
2022-10-19T00:42:42.360Z,22.68
2022-10-19T00:45:14.862Z,22.66
2022-10-19T00:47:44.860Z,22.63
2022-10-19T00:50:15.561Z,22.61
2022-10-19T00:52:44.200Z,22.63
2022-10-19T00:55:12.239Z,22.57
2022-10-19T00:57:40.560Z,22.51
2022-10-19T01:00:09.577Z,22.54
2022-10-19T01:02:37.027Z,22.50
2022-10-19T01:05:05.081Z,22.46
2022-10-19T01:07:32.924Z,22.43
2022-10-19T01:10:02.967Z,22.43
2022-10-19T01:13:06.240Z,22.39
2022-10-19T01:15:45.607Z,22.34
2022-10-19T01:18:22.161Z,22.31
2022-10-19T01:21:11.080Z,22.23
2022-10-19T01:24:07.353Z,22.13
2022-10-19T01:27:11.761Z,22.08
2022-10-19T01:30:02.185Z,22.07
2022-10-19T01:32:40.919Z,22.05
2022-10-19T01:35:17.800Z,22.08
2022-10-19T01:37:50.523Z,22.46
2022-10-19T01:40:30.300Z,22.77
2022-10-19T01:43:05.021Z,22.78
2022-10-19T01:45:44.561Z,22.80
2022-10-19T01:48:19.160Z,22.85
2022-10-19T01:50:54.434Z,23.11
2022-10-19T01:53:23.482Z,23.09
2022-10-19T01:55:53.231Z,22.95
2022-10-19T01:58:27.342Z,22.84
2022-10-19T02:01:01.985Z,22.81
2022-10-19T02:03:29.919Z,22.78
2022-10-19T02:05:58.482Z,22.64
2022-10-19T02:08:30.456Z,22.65
2022-10-19T02:11:00.010Z,22.74
2022-10-19T02:13:30.439Z,22.62
2022-10-19T02:16:06.367Z,22.80
2022-10-19T02:18:39.660Z,22.98
2022-10-19T02:21:08.839Z,22.85
2022-10-19T02:23:36.039Z,22.95
2022-10-19T02:26:03.899Z,22.92
2022-10-19T02:28:32.201Z,22.81
2022-10-19T02:31:01.199Z,22.70
2022-10-19T02:33:30.041Z,22.71
2022-10-19T02:35:57.821Z,22.63
2022-10-19T02:38:25.624Z,22.55
2022-10-19T02:41:04.239Z,22.68
2022-10-19T02:43:37.723Z,22.61
2022-10-19T02:46:11.960Z,22.65
2022-10-19T02:48:41.640Z,22.68
2022-10-19T02:51:31.186Z,22.51
2022-10-19T02:54:01.153Z,22.65
2022-10-19T02:56:31.660Z,22.47
2022-10-19T02:58:58.700Z,22.42
2022-10-19T03:01:27.682Z,22.47
2022-10-19T03:03:54.728Z,22.45
2022-10-19T03:06:21.801Z,22.52
2022-10-19T03:08:48.880Z,22.47
2022-10-19T03:11:15.940Z,22.34
2022-10-19T03:13:42.997Z,22.33
2022-10-19T03:16:12.080Z,22.23
2022-10-19T03:18:41.420Z,22.20
2022-10-19T03:21:10.740Z,22.24
2022-10-19T03:23:38.880Z,22.21
2022-10-19T03:26:10.046Z,22.27
2022-10-19T03:28:39.479Z,22.28
2022-10-19T03:31:06.600Z,22.21
2022-10-19T03:33:33.660Z,22.19
2022-10-19T03:36:17.386Z,22.11
2022-10-19T03:38:44.620Z,22.17
2022-10-19T03:41:12.921Z,22.15
2022-10-19T03:43:39.960Z,22.09
2022-10-19T03:46:07.262Z,22.04
2022-10-19T03:48:35.420Z,22.00
2022-10-19T03:51:05.003Z,21.95
2022-10-19T03:53:33.821Z,21.98
2022-10-19T03:56:02.239Z,21.85
2022-10-19T03:58:29.440Z,21.88
2022-10-19T04:00:56.464Z,21.89
2022-10-19T04:03:23.581Z,21.86
2022-10-19T04:05:50.681Z,21.87
2022-10-19T04:08:17.941Z,21.94
2022-10-19T04:10:46.480Z,21.88
2022-10-19T04:13:13.581Z,21.94
2022-10-19T04:15:40.619Z,21.96
2022-10-19T04:18:07.640Z,21.90
2022-10-19T04:20:34.700Z,21.88
2022-10-19T04:23:01.761Z,21.81
2022-10-19T04:25:28.842Z,21.84
2022-10-19T04:27:57.339Z,21.73
2022-10-19T04:30:24.369Z,21.68
2022-10-19T04:32:51.460Z,21.67
2022-10-19T04:35:18.521Z,21.62
2022-10-19T04:37:45.580Z,21.64
2022-10-19T04:40:14.974Z,21.62
2022-10-19T04:42:42.384Z,21.66
2022-10-19T04:45:11.521Z,21.58
2022-10-19T04:47:38.599Z,21.63
2022-10-19T04:50:06.159Z,21.65
2022-10-19T04:52:33.161Z,21.63
2022-10-19T04:55:00.201Z,21.64
2022-10-19T04:57:27.248Z,21.59
2022-10-19T04:59:54.411Z,21.64
2022-10-19T05:02:22.959Z,21.59
2022-10-19T05:04:50.062Z,21.69
2022-10-19T05:07:17.186Z,21.66
2022-10-19T05:09:44.342Z,21.68
2022-10-19T05:12:11.440Z,21.64
2022-10-19T05:14:41.935Z,21.71
2022-10-19T05:17:10.148Z,21.70
2022-10-19T05:19:38.659Z,21.65
2022-10-19T05:22:05.701Z,21.72
2022-10-19T05:24:32.780Z,21.61
2022-10-19T05:26:59.900Z,21.67
2022-10-19T05:29:27.180Z,21.58
2022-10-19T05:31:54.444Z,21.62
2022-10-19T05:34:21.799Z,21.62
2022-10-19T05:36:50.302Z,21.58
2022-10-19T05:39:18.441Z,21.59
2022-10-19T05:41:47.221Z,21.54
2022-10-19T05:44:16.502Z,21.54
2022-10-19T05:46:44.322Z,21.54
2022-10-19T05:49:12.542Z,21.61
2022-10-19T05:51:40.041Z,21.61
2022-10-19T05:54:08.602Z,21.63
2022-10-19T05:56:35.685Z,21.64
2022-10-19T05:59:06.717Z,21.53
2022-10-19T06:01:35.655Z,21.50
2022-10-19T06:04:03.875Z,21.49
2022-10-19T06:06:31.381Z,21.54
2022-10-19T06:08:58.840Z,21.54
2022-10-19T06:11:29.482Z,21.51
2022-10-19T06:13:59.581Z,21.40
2022-10-19T06:16:28.502Z,21.38
2022-10-19T06:18:57.082Z,21.47
2022-10-19T06:21:27.366Z,21.80
2022-10-19T06:23:56.445Z,22.03
2022-10-19T06:26:25.182Z,22.18
2022-10-19T06:28:56.082Z,22.28
2022-10-19T06:31:23.194Z,22.33
2022-10-19T06:33:50.331Z,22.27
2022-10-19T06:36:20.004Z,22.17
2022-10-19T06:38:48.421Z,22.17
2022-10-19T06:41:16.983Z,22.20
2022-10-19T06:43:44.040Z,22.12
2022-10-19T06:46:15.021Z,22.17
2022-10-19T06:48:42.165Z,22.20
2022-10-19T06:51:09.825Z,22.17
2022-10-19T06:53:37.481Z,22.51
2022-10-19T06:56:06.840Z,22.87
2022-10-19T06:58:36.177Z,23.13
2022-10-19T07:01:04.160Z,23.37
2022-10-19T07:03:32.843Z,23.60
2022-10-19T07:06:02.001Z,23.86
2022-10-19T07:08:31.202Z,24.16
2022-10-19T07:11:01.363Z,24.46
2022-10-19T07:13:29.523Z,24.71
2022-10-19T07:16:01.142Z,24.94
2022-10-19T07:18:28.261Z,25.07
2022-10-19T07:20:57.921Z,25.24
2022-10-19T07:23:26.700Z,25.34
2022-10-19T07:25:55.125Z,25.37
2022-10-19T07:28:22.902Z,25.57
2022-10-19T07:30:50.108Z,25.63
2022-10-19T07:35:49.163Z,25.95
2022-10-19T07:38:17.781Z,26.06
2022-10-19T07:40:47.333Z,26.20
2022-10-19T07:43:14.781Z,26.30
2022-10-19T07:45:41.860Z,26.41
2022-10-19T07:48:08.921Z,26.60
2022-10-19T07:50:36.080Z,26.70
2022-10-19T07:53:03.160Z,26.80
2022-10-19T07:55:33.843Z,26.75
2022-10-19T07:58:01.241Z,26.88
2022-10-19T08:00:28.347Z,27.03
2022-10-19T08:03:26.531Z,27.00
2022-10-19T08:05:43.101Z,27.33
2022-10-19T08:08:10.224Z,27.48
2022-10-19T08:10:38.880Z,27.56
2022-10-19T08:13:05.940Z,27.69
2022-10-19T08:15:33.021Z,27.78
2022-10-19T08:18:00.883Z,27.87
2022-10-19T08:20:28.105Z,27.76
2022-10-19T08:22:58.098Z,27.97
2022-10-19T08:25:26.319Z,27.87
2022-10-19T08:27:54.843Z,28.00
2022-10-19T08:30:22.073Z,27.92
2022-10-19T08:32:49.262Z,27.99
2022-10-19T08:35:16.422Z,28.12
2022-10-19T08:37:45.755Z,28.18
2022-10-19T08:40:19.467Z,28.36
2022-10-19T08:42:58.281Z,28.40
2022-10-19T08:48:29.345Z,28.07
2022-10-19T08:50:58.490Z,28.23
2022-10-19T08:53:35.891Z,27.92
2022-10-19T08:56:45.734Z,28.21
2022-10-19T08:59:26.701Z,28.27
2022-10-19T09:01:57.461Z,28.31
2022-10-19T09:04:30.940Z,28.52
2022-10-19T09:07:25.960Z,28.25
2022-10-19T09:09:58.543Z,28.41
2022-10-19T09:12:37.964Z,28.54
2022-10-19T09:15:13.122Z,28.56
2022-10-19T09:17:40.363Z,28.85
2022-10-19T09:20:29.561Z,28.95
2022-10-19T09:23:04.070Z,29.11
2022-10-19T09:25:37.701Z,29.07
2022-10-19T09:28:25.668Z,29.30
2022-10-19T09:30:59.822Z,29.31
2022-10-19T09:33:34.980Z,29.11
2022-10-19T09:36:05.349Z,29.14
2022-10-19T09:38:32.881Z,28.97
2022-10-19T09:41:15.982Z,28.82
2022-10-19T09:43:48.163Z,28.81
2022-10-19T09:46:29.689Z,28.95
2022-10-19T09:49:00.480Z,29.02
2022-10-19T09:51:40.961Z,29.20
2022-10-19T09:54:25.623Z,29.19
2022-10-19T09:56:56.962Z,29.33
2022-10-19T09:59:28.901Z,29.46
2022-10-19T10:02:17.604Z,29.55
2022-10-19T10:04:54.773Z,29.70
2022-10-19T10:07:24.362Z,29.44
2022-10-19T10:09:53.361Z,29.72
2022-10-19T10:12:24.062Z,29.92
2022-10-19T10:14:53.561Z,29.65
2022-10-19T10:17:29.101Z,29.54
2022-10-19T10:20:17.480Z,29.18
2022-10-19T10:22:53.000Z,29.32
2022-10-19T10:25:20.524Z,29.37
2022-10-19T10:27:56.762Z,28.92
2022-10-19T10:30:24.322Z,29.07
2022-10-19T10:33:00.376Z,28.87
2022-10-19T10:35:37.240Z,28.95
2022-10-19T10:38:09.660Z,28.96
2022-10-19T10:40:39.513Z,28.83
2022-10-19T10:43:14.079Z,29.06
2022-10-19T10:45:45.481Z,29.16
2022-10-19T10:48:27.862Z,29.32
2022-10-19T10:50:56.222Z,29.03
2022-10-19T10:53:37.648Z,29.27
2022-10-19T10:56:11.201Z,29.37
2022-10-19T10:58:47.124Z,29.34
2022-10-19T11:01:20.763Z,29.33
2022-10-19T11:03:58.045Z,29.39
2022-10-19T11:06:26.464Z,29.34
2022-10-19T11:09:03.677Z,29.14
2022-10-19T11:11:37.117Z,28.61
2022-10-19T11:14:28.603Z,28.93
2022-10-19T11:17:01.102Z,29.04
2022-10-19T11:19:35.947Z,29.21
2022-10-19T11:22:16.945Z,28.82
2022-10-19T11:24:59.883Z,28.89
2022-10-19T11:27:42.561Z,28.91
2022-10-19T11:30:14.264Z,29.08
2022-10-19T11:32:52.762Z,28.55
2022-10-19T11:35:47.821Z,28.51
2022-10-19T11:38:32.584Z,28.38
2022-10-19T11:41:18.897Z,28.30
2022-10-19T11:44:04.400Z,28.20
2022-10-19T11:46:42.443Z,27.86
2022-10-19T11:49:27.759Z,27.79
2022-10-19T11:52:08.019Z,27.76
2022-10-19T11:54:54.100Z,27.73
2022-10-19T11:57:26.461Z,27.69
2022-10-19T12:00:14.515Z,27.50
2022-10-19T12:03:03.864Z,27.39
2022-10-19T12:05:42.540Z,27.36
2022-10-19T12:08:27.389Z,27.41
2022-10-19T12:11:04.363Z,27.39
2022-10-19T12:13:41.059Z,27.55
2022-10-19T12:16:13.380Z,27.69
2022-10-19T12:18:45.623Z,27.62
2022-10-19T12:21:24.459Z,27.66
2022-10-19T12:23:54.541Z,27.47
2022-10-19T12:26:23.068Z,27.28
2022-10-19T12:28:53.782Z,27.54
2022-10-19T12:31:23.122Z,27.67
2022-10-19T12:34:01.619Z,27.75
2022-10-19T12:36:43.340Z,27.52
2022-10-19T12:39:23.541Z,27.45
2022-10-19T12:42:02.785Z,27.19
2022-10-19T12:45:07.283Z,26.98
2022-10-19T12:47:35.059Z,27.15
2022-10-19T12:50:02.481Z,27.07
2022-10-19T12:52:40.947Z,27.22
2022-10-19T12:55:26.803Z,27.18
2022-10-19T12:58:01.531Z,27.13
2022-10-19T13:00:32.594Z,27.00
2022-10-19T13:03:04.985Z,27.04
2022-10-19T13:05:34.960Z,26.98
2022-10-19T13:08:09.229Z,26.89
2022-10-19T13:10:40.841Z,26.91
2022-10-19T13:13:49.681Z,26.94
2022-10-19T13:16:46.343Z,26.55
2022-10-19T13:19:21.546Z,26.61
2022-10-19T13:21:54.881Z,26.56
2022-10-19T13:24:35.700Z,26.52
2022-10-19T13:27:37.462Z,26.45
2022-10-19T13:30:26.402Z,26.38
2022-10-19T13:32:53.582Z,26.26
2022-10-19T13:35:33.561Z,26.19
2022-10-19T13:38:27.813Z,26.20
2022-10-19T13:41:10.685Z,26.15
2022-10-19T13:43:50.806Z,26.19
2022-10-19T13:46:24.501Z,26.18
2022-10-19T13:49:32.657Z,26.16
2022-10-19T13:52:27.200Z,26.16
2022-10-19T13:55:24.981Z,26.15
2022-10-19T13:58:18.941Z,26.13
2022-10-19T14:01:08.062Z,26.15
2022-10-19T14:04:05.521Z,26.13
2022-10-19T14:06:40.162Z,26.26
2022-10-19T14:09:32.341Z,26.31
2022-10-19T14:12:07.162Z,26.35
2022-10-19T14:19:53.623Z,26.27
2022-10-19T14:22:26.242Z,26.26
2022-10-19T14:25:01.344Z,26.20
2022-10-19T14:27:30.605Z,26.16
2022-10-19T14:29:58.023Z,26.14
2022-10-19T14:32:29.610Z,26.13
2022-10-19T14:37:37.209Z,26.08
2022-10-19T14:40:26.492Z,26.13
2022-10-19T14:42:56.382Z,26.13
2022-10-19T14:45:26.485Z,26.23
2022-10-19T14:48:01.925Z,26.22
2022-10-19T14:50:39.908Z,26.26
2022-10-19T14:53:22.649Z,26.28
2022-10-19T14:55:56.002Z,26.14
2022-10-19T14:58:27.344Z,26.04
2022-10-19T15:00:56.422Z,26.04
2022-10-19T15:03:28.705Z,26.01
2022-10-19T15:06:00.102Z,25.93
2022-10-19T15:08:37.201Z,25.85
2022-10-19T15:11:07.402Z,25.84
2022-10-19T15:13:40.569Z,25.81
2022-10-19T15:16:41.443Z,25.72
2022-10-19T15:19:18.341Z,25.68
2022-10-19T15:21:46.322Z,25.67
2022-10-19T15:24:28.185Z,25.56
2022-10-19T15:27:08.725Z,25.51
2022-10-19T15:29:36.987Z,25.38
2022-10-19T15:32:15.942Z,25.36
2022-10-19T15:34:46.001Z,25.42
2022-10-19T15:37:20.647Z,25.38
2022-10-19T15:39:48.901Z,25.34
2022-10-19T15:42:33.838Z,25.30
2022-10-19T15:45:01.276Z,25.17
2022-10-19T15:47:28.943Z,25.12
2022-10-19T15:50:00.427Z,25.08
2022-10-19T15:52:29.105Z,25.09
2022-10-19T15:54:58.706Z,25.09
2022-10-19T15:57:30.464Z,25.07
2022-10-19T15:59:59.847Z,25.06
2022-10-19T16:02:27.545Z,25.01
2022-10-19T16:04:55.106Z,25.04
2022-10-19T16:07:29.256Z,25.05
2022-10-19T16:09:57.004Z,24.99
2022-10-19T16:12:25.622Z,24.89
2022-10-19T16:14:53.122Z,24.86
2022-10-19T16:17:20.543Z,24.84
2022-10-19T16:19:47.801Z,24.85
2022-10-19T16:22:16.441Z,24.80
2022-10-19T16:24:45.005Z,24.76
2022-10-19T16:27:12.143Z,24.72
2022-10-19T16:29:39.522Z,24.72
2022-10-19T16:32:06.764Z,24.73
2022-10-19T16:34:33.926Z,24.76
2022-10-19T16:37:04.096Z,24.71
2022-10-19T16:39:33.842Z,24.69
2022-10-19T16:42:02.371Z,24.58
2022-10-19T16:44:29.842Z,24.59
2022-10-19T16:46:57.547Z,24.48
2022-10-19T16:49:24.871Z,24.48
2022-10-19T16:51:54.844Z,24.37
2022-10-19T16:54:25.121Z,24.33
2022-10-19T16:56:52.263Z,24.36
2022-10-19T16:59:20.843Z,24.39
2022-10-19T17:01:48.642Z,24.33
2022-10-19T17:04:16.962Z,24.34
2022-10-19T17:06:44.481Z,24.35
2022-10-19T17:09:37.016Z,24.32
2022-10-19T17:11:59.037Z,24.25
2022-10-19T17:14:27.744Z,24.21
2022-10-19T17:16:54.861Z,24.34
2022-10-19T17:19:21.965Z,24.21
2022-10-19T17:21:49.602Z,24.15
2022-10-19T17:24:22.137Z,24.08
2022-10-19T17:26:51.053Z,24.01
2022-10-19T17:29:19.383Z,23.93
2022-10-19T17:31:48.406Z,23.90
2022-10-19T17:34:18.033Z,24.03
2022-10-19T17:36:47.194Z,24.18
2022-10-19T17:39:17.773Z,24.06
2022-10-19T17:41:46.005Z,23.96
2022-10-19T17:44:13.720Z,23.94
2022-10-19T17:46:40.921Z,23.99
2022-10-19T17:49:09.826Z,23.87
2022-10-19T17:51:37.705Z,23.79
2022-10-19T17:54:07.042Z,23.73
2022-10-19T17:56:36.260Z,23.66
2022-10-19T17:59:04.225Z,23.62
2022-10-19T18:01:31.842Z,23.57
2022-10-19T18:03:59.817Z,23.55
2022-10-19T18:06:30.689Z,23.51
2022-10-19T18:09:00.100Z,23.51
2022-10-19T18:11:29.642Z,23.46
2022-10-19T18:14:00.428Z,23.46
2022-10-19T18:16:29.661Z,23.44
2022-10-19T18:18:59.661Z,23.42
2022-10-19T18:21:31.084Z,23.41
2022-10-19T18:24:00.845Z,23.41
2022-10-19T18:26:30.924Z,23.41
2022-10-19T18:28:59.565Z,23.37
2022-10-19T18:31:28.686Z,23.37
2022-10-19T18:34:00.345Z,23.33
2022-10-19T18:36:29.345Z,23.31
2022-10-19T18:38:58.909Z,23.31
2022-10-19T18:41:26.906Z,23.30
2022-10-19T18:43:56.285Z,23.26
2022-10-19T18:46:25.464Z,23.24
2022-10-19T18:48:53.026Z,23.19
2022-10-19T18:51:22.156Z,23.18
2022-10-19T18:53:50.864Z,23.13
2022-10-19T18:56:20.985Z,23.10
2022-10-19T18:58:48.604Z,23.05
2022-10-19T19:01:18.147Z,23.03
2022-10-19T19:03:47.043Z,23.02
2022-10-19T19:06:16.843Z,23.00
2022-10-19T19:11:19.844Z,22.88
2022-10-19T19:13:48.815Z,22.88
2022-10-19T19:16:16.064Z,22.83
2022-10-19T19:18:43.487Z,22.79
2022-10-19T19:21:15.284Z,22.72
2022-10-19T19:23:42.546Z,22.71
2022-10-19T19:26:10.605Z,22.68
2022-10-19T19:28:41.561Z,22.69
2022-10-19T19:31:10.782Z,22.69
2022-10-19T19:33:38.365Z,22.64
2022-10-19T19:36:08.365Z,22.61
2022-10-19T19:38:36.643Z,22.56
2022-10-19T19:41:04.903Z,22.55
2022-10-19T19:43:34.265Z,22.54
2022-10-19T19:46:08.877Z,22.53
2022-10-19T19:48:36.510Z,22.52
2022-10-19T19:51:03.801Z,22.50
2022-10-19T19:53:31.266Z,22.44
2022-10-19T19:55:58.329Z,22.42
2022-10-19T19:58:25.406Z,22.41
2022-10-19T20:00:52.467Z,22.38
2022-10-19T20:03:21.037Z,22.40
2022-10-19T20:05:48.125Z,22.45
2022-10-19T20:08:15.266Z,22.38
2022-10-19T20:10:43.664Z,22.21
2022-10-19T20:13:10.825Z,22.23
2022-10-19T20:18:05.304Z,22.30
2022-10-19T20:20:33.905Z,22.31
2022-10-19T20:23:01.005Z,22.32
2022-10-19T20:25:28.096Z,22.32
2022-10-19T20:27:55.177Z,22.33
2022-10-19T20:30:22.186Z,22.33
2022-10-19T20:32:53.865Z,22.36
2022-10-19T20:35:20.843Z,22.37
2022-10-19T20:37:50.084Z,22.37
2022-10-19T20:40:18.470Z,22.43
2022-10-19T20:42:45.566Z,22.41
2022-10-19T20:45:12.945Z,22.44
2022-10-19T20:47:40.130Z,22.45
2022-10-19T20:50:08.809Z,22.45
2022-10-19T20:52:36.683Z,22.48
2022-10-19T20:55:06.604Z,22.51
2022-10-19T20:57:33.639Z,22.47
2022-10-19T21:00:00.684Z,22.52
2022-10-19T21:02:27.743Z,22.52
2022-10-19T21:04:54.884Z,22.54
2022-10-19T21:07:22.025Z,22.54
2022-10-19T21:09:49.066Z,22.54
2022-10-19T21:12:17.585Z,22.51
2022-10-19T21:14:44.625Z,22.53
2022-10-19T21:17:11.687Z,22.54
2022-10-19T21:19:38.885Z,22.57
2022-10-19T21:22:05.883Z,22.58
2022-10-19T21:24:35.327Z,22.59
2022-10-19T21:27:04.929Z,22.59
2022-10-19T21:29:34.053Z,22.58
2022-10-19T21:32:01.165Z,22.59
2022-10-19T21:34:30.563Z,22.58
2022-10-19T21:36:58.164Z,22.56
2022-10-19T21:39:25.344Z,22.59
2022-10-19T21:41:52.725Z,22.60
2022-10-19T21:44:20.123Z,22.61
2022-10-19T21:46:49.305Z,22.58
2022-10-19T21:49:16.903Z,22.55
2022-10-19T21:51:46.683Z,22.56
2022-10-19T21:54:16.265Z,22.59
2022-10-19T21:56:43.768Z,22.59
2022-10-19T21:59:11.605Z,22.60
2022-10-19T22:01:41.266Z,22.61
2022-10-19T22:04:13.317Z,22.58
2022-10-19T22:06:41.093Z,22.58
2022-10-19T22:09:10.422Z,22.60
2022-10-19T22:11:37.605Z,22.63
2022-10-19T22:14:05.338Z,22.63
2022-10-19T22:16:33.805Z,22.62
2022-10-19T22:19:00.905Z,23.14
2022-10-19T22:21:31.922Z,23.89
2022-10-19T22:24:01.846Z,24.14
2022-10-19T22:26:31.843Z,24.31
2022-10-19T22:29:00.487Z,24.27
2022-10-19T22:31:29.784Z,24.16
2022-10-19T22:33:57.465Z,23.87
2022-10-19T22:36:24.504Z,23.64
2022-10-19T22:38:52.987Z,23.47
2022-10-19T22:41:57.385Z,23.32
2022-10-19T22:44:24.405Z,23.12
2022-10-19T22:46:51.486Z,23.02
2022-10-19T22:49:18.547Z,22.90
2022-10-19T22:51:45.704Z,22.74
2022-10-19T22:54:14.365Z,22.75
2022-10-19T22:56:42.446Z,22.75
2022-10-19T22:59:09.966Z,22.74
2022-10-19T23:01:37.803Z,22.74
2022-10-19T23:04:05.164Z,22.77
2022-10-19T23:06:32.424Z,22.80
2022-10-19T23:08:59.497Z,22.79
2022-10-19T23:11:28.304Z,22.80
2022-10-19T23:13:55.384Z,22.78
2022-10-19T23:16:22.477Z,22.79
2022-10-19T23:18:49.743Z,22.75
2022-10-19T23:21:16.957Z,22.79
2022-10-19T23:23:44.145Z,22.76
2022-10-19T23:26:14.185Z,22.74
2022-10-19T23:28:44.646Z,22.72
2022-10-19T23:31:14.207Z,22.69
2022-10-19T23:33:41.983Z,22.64
2022-10-19T23:36:13.287Z,22.61
2022-10-19T23:38:42.263Z,22.60
2022-10-19T23:41:09.486Z,22.63
2022-10-19T23:46:10.588Z,22.59
2022-10-19T23:48:37.785Z,22.63
2022-10-19T23:51:07.205Z,22.62
2022-10-19T23:53:40.017Z,22.60
2022-10-19T23:56:11.069Z,22.64
2022-10-19T23:58:38.165Z,22.73
